• Join FlightAware (Why Join?)
  • Login
  • US Flag 
12:47PM EDT


 

Airport Tracker/Info


-or-


 

Live Flight TrackerFlight Track Log ✈ GJS3649 ✈ 28-Jun-2013 ✈ KORD - KRDU

Flight Track Log - Related Links

Times and Time Zones

All times are in EDT time to prevent confusion due to time zone crossing. See the GJS3649 flight status page for this flight to view local times or setup timezone preferences in your user account.

Time Position Orientation Groundspeed Altitude Reporting Facility
EDT Latitude Longitude Course Direction KTS MPH feet Rate Location/Type
10:17PM 41.9167 -87.9167 180° South 187 215 2,100  Level Chicago TRACON
10:18PM 41.8667 -87.9000 166° South 232 267 4,200 1,680 Climbing Chicago TRACON
10:18PM 41.8189 -87.9175 195° South 253 291 5,200 2,160 Climbing Chicago Center
10:19PM 41.7356 -87.8647 155° Southeast 289 333 8,100 2,640 Climbing Chicago Center
10:20PM 41.6656 -87.7989 145° Southeast 302 348 10,600 2,220 Climbing Chicago Center
10:21PM 41.5908 -87.7283 145° Southeast 323 372 12,700 1,620 Climbing Chicago Center
10:22PM 41.5588 -87.1812 180° South  Level Estimated
10:22PM 41.5067 -87.6492 145° Southeast 362 417 14,000  Level Chicago Center
10:23PM 41.4106 -87.5717 149° Southeast 392 451 15,600 1,560 Climbing Chicago Center
10:24PM 41.2961 -87.5508 172° South 411 473 17,300 1,800 Climbing Chicago Center
10:25PM 41.1789 -87.5294 172° South 419 482 19,300 1,740 Climbing Chicago Center
10:26PM 41.0614 -87.4964 168° South 427 491 20,900 1,440 Climbing Chicago Center
10:27PM 40.9417 -87.4633 168° South 437 503 22,300 1,320 Climbing Chicago Center
10:29PM 40.8189 -87.4303 168° South 447 514 23,600 1,320 Climbing Chicago Center
10:30PM 40.6678 -87.3931 169° South 459 528 25,000 1,260 Climbing Chicago Center
10:31PM 40.5411 -87.3586 168° South 464 534 26,200 1,020 Climbing Chicago Center
10:32PM 40.4317 -87.3161 164° South 476 548 27,200 1,020 Climbing Chicago Center
10:33PM 40.3242 -87.2169 145° Southeast 475 547 28,400 1,200 Climbing Chicago Center
10:34PM 40.1950 -87.0967 145° Southeast 475 547 29,700 1,140 Climbing Chicago Center
10:35PM 40.0911 -86.9903 142° Southeast 473 544 30,700 840 Climbing Indianapolis Center
10:36PM 40.0181 -86.8456 123° Southeast 479 551 31,500 660 Climbing Indianapolis Center
10:37PM 39.9408 -86.7003 125° Southeast 485 558 32,100 600 Climbing Indianapolis Center
10:38PM 39.8628 -86.5508 124° Southeast 496 571 32,800 660 Climbing Indianapolis Center
10:39PM 39.7828 -86.3978 124° Southeast 501 577 33,500 660 Climbing Indianapolis Center
10:40PM 39.7019 -86.2447 124° Southeast 507 583 34,200 720 Climbing Indianapolis Center
10:41PM 39.6144 -86.0792 124° Southeast 515 593 35,000 720 Climbing Indianapolis Center
10:42PM 39.5333 -85.9267 125° Southeast 516 594 35,700 660 Climbing Indianapolis Center
10:43PM 39.4517 -85.7753 125° Southeast 515 593 36,400 660 Climbing Indianapolis Center
10:44PM 39.3711 -85.6256 125° Southeast 510 587 37,100 660 Climbing Indianapolis Center
10:45PM 39.2925 -85.4775 124° Southeast 504 580 37,800 540 Climbing Indianapolis Center
10:46PM 39.2122 -85.3314 125° Southeast 499 574 38,300 360 Climbing Indianapolis Center
10:47PM 39.1333 -85.1844 125° Southeast 500 575 38,600 240 Climbing Indianapolis Center
10:48PM 39.0528 -85.0386 125° Southeast 501 577 38,900 180 Climbing Indianapolis Center
10:49PM 38.9564 -84.8636 125° Southeast 500 575 39,000  Climbing Indianapolis Center
10:50PM 38.8753 -84.7153 125° Southeast 506 582 39,000  Level Indianapolis Center
10:51PM 38.7919 -84.5658 126° Southeast 517 595 39,000  Level Indianapolis Center
10:52PM 38.7039 -84.4081 126° Southeast 516 594 39,000  Level Indianapolis Center
10:53PM 38.6361 -84.2556 120° Southeast 525 604 39,000  Level Indianapolis Center
10:54PM 38.5889 -84.0708 108° East 543 625 39,000  Level Indianapolis Center
10:55PM 38.5417 -83.8900 108° East 538 619 39,000  Level Indianapolis Center
10:56PM 38.4928 -83.7067 109° East 543 625 39,000  Level Indianapolis Center
10:57PM 38.4364 -83.4950 109° East 538 619 39,000  Level Indianapolis Center
10:58PM 38.3889 -83.3117 108° East 540 621 39,000  Level Indianapolis Center
10:59PM 38.3419 -83.1333 109° East 531 611 39,000  Level Indianapolis Center
11:00PM 38.2939 -82.9564 109° East 527 606 39,000  Level Indianapolis Center
11:01PM 38.2458 -82.7822 109° East 522 601 39,000 -420 Level Indianapolis Center
11:02PM 38.1978 -82.6050 109° East 527 606 38,200 -900 Descending Indianapolis Center
11:03PM 38.1475 -82.4219 109° East 542 624 37,200 -1,020 Descending Indianapolis Center
11:04PM 38.0975 -82.2414 109° East 542 624 36,200 -600 Descending Indianapolis Center
11:05PM 38.0497 -82.0681 109° East 533 613 36,000 -120 Descending Indianapolis Center
11:06PM 37.9997 -81.8928 110° East 531 611 36,000  Level Indianapolis Center
11:07PM 37.9403 -81.6828 110° East 529 609 36,000 -240 Level Indianapolis Center
11:08PM 37.8908 -81.5086 110° East 527 606 35,600 -1,140 Descending Indianapolis Center
11:09PM 37.8392 -81.3331 110° East 534 615 33,700 -2,100 Descending Indianapolis Center
11:10PM 37.7861 -81.1500 110° East 538 619 31,400 -1,800 Descending Indianapolis Center
11:11PM 37.7233 -80.9858 116° Southeast 536 617 30,100 -1,140 Descending Indianapolis Center
11:12PM 37.6592 -80.8306 118° Southeast 521 600 29,100 -600 Descending Indianapolis Center
11:13PM 37.5822 -80.6481 118° Southeast 507 583 29,000 -60 Descending Indianapolis Center
11:14PM 37.5189 -80.4931 117° Southeast 512 589 29,000 -600 Level Indianapolis Center
11:15PM 37.4533 -80.3428 119° Southeast 511 588 27,900 -1,200 Descending Washington Center
11:16PM 37.3886 -80.1844 117° Southeast 511 588 26,700 -1,200 Descending Washington Center
11:17PM 37.3250 -80.0503 121° Southeast 511 588 25,600 -1,200 Descending Washington Center
11:18PM 37.2383 -79.9094 128° Southeast 506 582 24,400 -840 Descending Washington Center
11:19PM 37.1533 -79.7717 128° Southeast 506 582 24,000 -960 Descending Washington Center
11:20PM 37.0583 -79.6233 129° Southeast 506 582 22,600 -1,380 Descending Washington Center
11:21PM 36.9772 -79.4917 128° Southeast 493 567 21,400 -1,140 Descending Washington Center
11:22PM 36.8978 -79.3683 129° Southeast 480 552 20,400 -1,080 Descending Washington Center
11:23PM 36.8303 -79.2586 128° Southeast 455 524 19,300 -1,080 Descending Washington Center
11:24PM 36.7500 -79.1511 133° Southeast 437 503 18,300 -1,680 Descending Washington Center
11:25PM 36.6386 -79.1072 162° South 382 440 16,000 -3,180 Descending Washington Center
11:26PM 36.5500 -79.0669 160° South 364 419 11,900 -3,000 Descending Washington Center
11:27PM 36.4614 -79.0319 162° South 352 405 10,000 -1,020 Descending Washington Center
11:28PM 36.3872 -79.0003 161° South 310 357 10,000  Level Washington Center
11:29PM 36.3192 -78.9717 161° South 285 328 10,000  Level Washington Center
11:30PM 36.2386 -78.9397 162° South 279 321 10,000 -540 Level Washington Center
11:31PM 36.1706 -78.9111 161° South 284 327 9,000 -1,440 Descending Washington Center
11:32PM 36.1247 -78.8347 127° Southeast 261 300 7,200 -1,560 Descending Washington Center
11:33PM 36.1272 -78.7369 88° East 244 281 6,000 -600 Descending Washington Center
11:34PM 36.1378 -78.6578 81° East 250 288 6,000 -720 Level Washington Center
11:35PM 36.1375 -78.5781 90° East 224 258 4,600 -1,440 Descending Washington Center
11:36PM 36.0967 -78.5508 152° Southeast 167 192 3,200 -780 Descending Washington Center
11:38PM 36.0497 -78.5850 210° Southwest 172 198 3,000 -120 Descending Washington Center
11:39PM 36.0197 -78.6250 227° Southwest 170 196 3,000 -60 Level Washington Center
11:40PM 35.9831 -78.6697 225° Southwest 178 205 2,900 -480 Descending Washington Center
11:41PM 35.9572 -78.7019 225° Southwest 132 152 2,100 -720 Descending Washington Center
11:42PM 35.9333 -78.7319 225° Southwest 103 119 1,500 -600 Descending Washington Center
11:43PM 35.9075 -78.7592 220° Southwest 123 142 900 -600 Descending Washington Center